Time;durP1;ratioP1;P1;durP2;ratioP2;P2;SDS_P1;SDS_P2;PMS_P1;PMS_P2;Temp;Humidity;BMP_temperature;BMP_pressure;BME280_temperature;BME280_humidity;BME280_pressure;Samples;Min_cycle;Max_cycle;Signal;HPM_P1;HPM_P2
2022/12/01 00:00:47;;;;;;;33.53;18.58;;;;;;;;;;6244255;23;20028;-63
2022/12/01 00:03:13;;;;;;;37.30;19.85;;;;;;;;;;6244209;23;19999;-63
2022/12/01 00:05:39;;;;;;;41.03;20.23;;;;;;;;;;6244570;23;20050;-63
2022/12/01 00:08:05;;;;;;;41.60;18.83;;;;;;;;;;6244399;23;20004;-64
2022/12/01 00:10:33;;;;;;;41.33;19.70;;;;;;;;;;6244499;23;20438;-63
2022/12/01 00:13:00;;;;;;;40.17;21.15;;;;;;;;;;6244478;23;20008;-63
2022/12/01 00:15:30;;;;;;;40.05;19.08;;;;;;;;;;6244109;23;20496;-63
2022/12/01 00:17:57;;;;;;;45.08;20.98;;;;;;;;;;6244795;23;20323;-63
2022/12/01 00:20:23;;;;;;;39.75;19.95;;;;;;;;;;6244199;23;20063;-63
2022/12/01 00:22:50;;;;;;;30.50;17.45;;;;;;;;;;6244541;23;20012;-63
2022/12/01 00:25:17;;;;;;;35.40;17.50;;;;;;;;;;6244202;23;20000;-63
2022/12/01 00:27:46;;;;;;;30.27;16.75;;;;;;;;;;6245548;23;20012;-63
2022/12/01 00:30:13;;;;;;;33.90;17.23;;;;;;;;;;6246100;23;20004;-63
2022/12/01 00:32:39;;;;;;;30.20;16.50;;;;;;;;;;6246366;23;20047;-63
2022/12/01 00:35:05;;;;;;;33.00;18.10;;;;;;;;;;6246152;23;20053;-63
2022/12/01 00:37:32;;;;;;;36.33;17.23;;;;;;;;;;6246392;23;20011;-63
2022/12/01 00:39:58;;;;;;;37.75;18.80;;;;;;;;;;6246408;23;20004;-60
2022/12/01 00:42:25;;;;;;;36.22;18.85;;;;;;;;;;6245519;23;20014;-60
2022/12/01 00:44:51;;;;;;;32.42;16.10;;;;;;;;;;6246346;23;20435;-60
2022/12/01 00:47:17;;;;;;;33.42;17.23;;;;;;;;;;6245766;23;20732;-60
2022/12/01 00:49:44;;;;;;;34.15;17.60;;;;;;;;;;6246196;23;20007;-60
2022/12/01 00:52:10;;;;;;;35.17;17.83;;;;;;;;;;6246109;23;20000;-60
2022/12/01 00:54:36;;;;;;;30.42;17.75;;;;;;;;;;6246061;23;20000;-60
2022/12/01 00:57:03;;;;;;;38.05;18.00;;;;;;;;;;6245489;23;20011;-60
2022/12/01 00:59:29;;;;;;;47.15;19.77;;;;;;;;;;6246054;23;20000;-60
2022/12/01 01:01:55;;;;;;;30.73;17.60;;;;;;;;;;6246166;22;20011;-60
2022/12/01 01:04:21;;;;;;;37.92;18.08;;;;;;;;;;6245618;23;20035;-60
2022/12/01 01:06:47;;;;;;;35.65;18.38;;;;;;;;;;6245813;23;20011;-60
2022/12/01 01:09:14;;;;;;;39.28;18.50;;;;;;;;;;6245842;23;20003;-60
2022/12/01 01:11:40;;;;;;;34.42;17.45;;;;;;;;;;6245739;23;20050;-60
2022/12/01 01:14:07;;;;;;;32.92;18.45;;;;;;;;;;6245598;23;20484;-60
2022/12/01 01:16:33;;;;;;;55.17;20.17;;;;;;;;;;6245812;23;20079;-60
2022/12/01 01:18:59;;;;;;;34.30;17.27;;;;;;;;;;6245751;23;20029;-60
2022/12/01 01:21:26;;;;;;;33.63;17.77;;;;;;;;;;6245646;23;20058;-60
2022/12/01 01:23:53;;;;;;;35.13;17.85;;;;;;;;;;6245823;23;20558;-60
2022/12/01 01:26:23;;;;;;;35.00;19.00;;;;;;;;;;6245102;23;20008;-60
2022/12/01 01:28:50;;;;;;;35.03;17.92;;;;;;;;;;6245843;23;20000;-60
2022/12/01 01:31:18;;;;;;;36.38;18.42;;;;;;;;;;6245487;23;20338;-60
2022/12/01 01:33:44;;;;;;;37.65;18.17;;;;;;;;;;6245639;23;20011;-60
2022/12/01 01:36:10;;;;;;;43.25;20.90;;;;;;;;;;6245750;23;20000;-60
2022/12/01 01:38:36;;;;;;;42.53;20.63;;;;;;;;;;6246043;23;20008;-60
2022/12/01 01:41:03;;;;;;;41.88;21.00;;;;;;;;;;6245265;23;20004;-60
2022/12/01 01:43:44;;;;;;;38.70;19.50;;;;;;;;;;6245481;23;20031;-60
2022/12/01 01:46:21;;;;;;;39.55;19.90;;;;;;;;;;6245535;23;20083;-60
2022/12/01 01:48:53;;;;;;;45.25;20.35;;;;;;;;;;6245785;23;20054;-60
2022/12/01 01:51:22;;;;;;;36.88;18.30;;;;;;;;;;6245370;23;20005;-60
2022/12/01 01:53:48;;;;;;;38.17;18.77;;;;;;;;;;6244017;23;20046;-60
2022/12/01 01:56:14;;;;;;;43.63;20.40;;;;;;;;;;6244926;23;20008;-60
2022/12/01 01:58:41;;;;;;;37.20;20.02;;;;;;;;;;6245538;23;20000;-60
2022/12/01 02:01:07;;;;;;;44.40;19.83;;;;;;;;;;6245473;23;20008;-60
2022/12/01 02:03:35;;;;;;;40.15;20.08;;;;;;;;;;6245146;23;20004;-60
2022/12/01 02:06:01;;;;;;;41.30;20.25;;;;;;;;;;6245232;23;20028;-60
2022/12/01 02:08:27;;;;;;;33.72;17.10;;;;;;;;;;6245028;23;20518;-60
2022/12/01 02:10:56;;;;;;;41.95;18.67;;;;;;;;;;6245041;23;20012;-60
2022/12/01 02:13:26;;;;;;;38.58;18.33;;;;;;;;;;6245025;23;20130;-60
2022/12/01 02:15:52;;;;;;;41.72;19.40;;;;;;;;;;6245303;23;20015;-60
2022/12/01 02:18:24;;;;;;;38.53;18.33;;;;;;;;;;6245041;23;20071;-60
2022/12/01 02:20:50;;;;;;;37.75;18.85;;;;;;;;;;6245266;22;20000;-60
2022/12/01 02:23:34;;;;;;;38.50;18.50;;;;;;;;;;6245241;23;20000;-60
2022/12/01 02:26:00;;;;;;;54.33;25.05;;;;;;;;;;6244956;23;20004;-60
2022/12/01 02:28:39;;;;;;;59.83;27.52;;;;;;;;;;6244906;23;20031;-60
2022/12/01 02:31:12;;;;;;;58.65;26.77;;;;;;;;;;6245201;23;20000;-60
2022/12/01 02:33:41;;;;;;;56.97;27.08;;;;;;;;;;6245114;23;20038;-60
2022/12/01 02:36:20;;;;;;;68.50;33.03;;;;;;;;;;6245358;23;20004;-60
2022/12/01 02:38:58;;;;;;;66.68;28.98;;;;;;;;;;6244868;23;20517;-60
2022/12/01 02:41:28;;;;;;;56.72;25.67;;;;;;;;;;6244877;23;20027;-60
2022/12/01 02:43:54;;;;;;;53.25;24.05;;;;;;;;;;6244922;23;20462;-60
2022/12/01 02:46:23;;;;;;;63.60;27.35;;;;;;;;;;6244790;23;20427;-60
2022/12/01 02:48:50;;;;;;;55.00;27.02;;;;;;;;;;6245224;23;20007;-60
2022/12/01 02:51:19;;;;;;;69.97;28.38;;;;;;;;;;6244464;23;20000;-60
2022/12/01 02:53:46;;;;;;;62.70;28.48;;;;;;;;;;6244446;23;20438;-60
2022/12/01 02:56:14;;;;;;;62.22;28.17;;;;;;;;;;6245151;23;20004;-63
2022/12/01 02:58:42;;;;;;;56.88;27.02;;;;;;;;;;6244887;23;20062;-63
2022/12/01 03:01:09;;;;;;;49.90;24.42;;;;;;;;;;6245058;22;20004;-63
2022/12/01 03:03:38;;;;;;;56.08;25.30;;;;;;;;;;6244856;22;20020;-62
2022/12/01 03:06:14;;;;;;;51.20;23.67;;;;;;;;;;6244829;23;20004;-63
2022/12/01 03:09:03;;;;;;;52.10;23.83;;;;;;;;;;6244371;23;20565;-63
2022/12/01 03:11:41;;;;;;;50.70;23.60;;;;;;;;;;6229487;23;20084;-63
2022/12/01 03:14:17;;;;;;;55.90;23.95;;;;;;;;;;6244862;22;20008;-63
2022/12/01 03:16:51;;;;;;;48.60;22.83;;;;;;;;;;6244868;22;20046;-62
2022/12/01 03:19:21;;;;;;;53.67;23.70;;;;;;;;;;6244915;22;20065;-63
2022/12/01 03:22:10;;;;;;;48.17;22.33;;;;;;;;;;6244385;23;20008;-63
2022/12/01 03:24:37;;;;;;;49.28;21.52;;;;;;;;;;6244559;23;20012;-64
2022/12/01 03:27:04;;;;;;;39.97;20.33;;;;;;;;;;6244595;23;20000;-63
2022/12/01 03:29:37;;;;;;;48.13;20.85;;;;;;;;;;6244667;23;20000;-63
2022/12/01 03:32:06;;;;;;;45.90;19.63;;;;;;;;;;6244915;22;20071;-63
2022/12/01 03:34:52;;;;;;;43.72;19.73;;;;;;;;;;6244410;23;20000;-62
2022/12/01 03:37:23;;;;;;;41.28;18.85;;;;;;;;;;6244258;23;20087;-63
2022/12/01 03:39:51;;;;;;;37.22;18.83;;;;;;;;;;6244878;22;20091;-62
2022/12/01 03:42:24;;;;;;;44.15;18.75;;;;;;;;;;6244654;23;20023;-62
2022/12/01 03:44:53;;;;;;;45.42;20.17;;;;;;;;;;6244707;23;20009;-62
2022/12/01 03:47:21;;;;;;;40.53;17.77;;;;;;;;;;6244627;23;20502;-62
2022/12/01 03:49:49;;;;;;;37.80;17.83;;;;;;;;;;6244558;23;20027;-62
2022/12/01 03:52:19;;;;;;;42.22;18.50;;;;;;;;;;6244622;23;20055;-62
2022/12/01 03:54:46;;;;;;;44.97;20.63;;;;;;;;;;6244659;23;20004;-62
2022/12/01 03:57:15;;;;;;;41.13;20.30;;;;;;;;;;6244566;22;20008;-62
2022/12/01 03:59:42;;;;;;;53.47;19.88;;;;;;;;;;6244207;23;20012;-62
2022/12/01 04:02:09;;;;;;;54.60;21.88;;;;;;;;;;6245755;23;20010;-62
2022/12/01 04:04:35;;;;;;;49.20;21.25;;;;;;;;;;6246321;23;20008;-62
2022/12/01 04:07:01;;;;;;;50.25;21.58;;;;;;;;;;6246205;23;20119;-62
2022/12/01 04:09:27;;;;;;;48.78;22.48;;;;;;;;;;6246558;23;20131;-63
2022/12/01 04:14:38;;;;;;;49.83;21.88;;;;;;;;;;6246234;23;20004;-62
2022/12/01 04:17:04;;;;;;;52.20;23.05;;;;;;;;;;6246557;23;20008;-63
2022/12/01 04:19:31;;;;;;;46.63;21.48;;;;;;;;;;6246399;23;20004;-63
2022/12/01 04:21:57;;;;;;;50.65;22.95;;;;;;;;;;6246196;23;20004;-63
2022/12/01 04:24:23;;;;;;;55.03;23.33;;;;;;;;;;6246561;23;20442;-63
2022/12/01 04:26:49;;;;;;;47.97;22.15;;;;;;;;;;6246429;23;20004;-62
2022/12/01 04:29:15;;;;;;;50.58;22.10;;;;;;;;;;6246439;23;20004;-62
2022/12/01 04:31:41;;;;;;;47.05;21.38;;;;;;;;;;6246135;23;20050;-63
2022/12/01 04:34:07;;;;;;;47.92;21.83;;;;;;;;;;6246502;23;20004;-63
2022/12/01 04:36:34;;;;;;;47.97;22.45;;;;;;;;;;6245794;23;20488;-63
2022/12/01 04:39:01;;;;;;;48.30;21.35;;;;;;;;;;6246474;23;20008;-62
2022/12/01 04:41:28;;;;;;;53.92;23.23;;;;;;;;;;6246328;23;20008;-62
2022/12/01 04:43:54;;;;;;;53.72;23.70;;;;;;;;;;6246050;23;20058;-63
2022/12/01 04:46:21;;;;;;;47.30;22.58;;;;;;;;;;6246062;23;20004;-63
2022/12/01 04:48:47;;;;;;;52.95;23.05;;;;;;;;;;6245975;23;20079;-63
2022/12/01 04:51:13;;;;;;;48.28;21.55;;;;;;;;;;6246220;23;20004;-63
2022/12/01 04:53:40;;;;;;;53.70;22.00;;;;;;;;;;6246011;23;20007;-63
2022/12/01 04:56:06;;;;;;;53.78;22.85;;;;;;;;;;6246275;23;19997;-63
2022/12/01 04:58:33;;;;;;;49.67;21.90;;;;;;;;;;6245908;23;20469;-63
2022/12/01 05:01:03;;;;;;;46.95;20.60;;;;;;;;;;6246089;23;20007;-63
2022/12/01 05:03:29;;;;;;;48.05;22.30;;;;;;;;;;6245808;23;20494;-63
2022/12/01 05:06:02;;;;;;;50.33;22.08;;;;;;;;;;6245698;23;20000;-63
2022/12/01 05:08:28;;;;;;;;;;;;;;;;;;6246409;23;20039;-63
2022/12/01 05:10:57;;;;;;;45.10;20.73;;;;;;;;;;6246058;23;20241;-63
2022/12/01 05:13:23;;;;;;;46.60;20.63;;;;;;;;;;6245418;23;20468;-63
2022/12/01 05:15:49;;;;;;;45.95;21.05;;;;;;;;;;6246021;23;20004;-63
2022/12/01 05:18:15;;;;;;;57.88;22.67;;;;;;;;;;6245376;23;20004;-63
2022/12/01 05:20:57;;;;;;;54.25;23.23;;;;;;;;;;6246068;23;20000;-63
2022/12/01 05:23:27;;;;;;;53.40;21.27;;;;;;;;;;6244293;23;20014;-63
2022/12/01 05:25:53;;;;;;;48.67;21.58;;;;;;;;;;6244726;23;20008;-63
2022/12/01 05:28:20;;;;;;;49.15;20.88;;;;;;;;;;6245079;23;20438;-63
2022/12/01 05:30:46;;;;;;;47.47;22.38;;;;;;;;;;6244691;23;20541;-63
2022/12/01 05:33:12;;;;;;;52.53;20.33;;;;;;;;;;6245412;23;20034;-63
2022/12/01 05:35:39;;;;;;;46.90;21.25;;;;;;;;;;6245819;23;20000;-63
2022/12/01 05:38:05;;;;;;;37.17;18.98;;;;;;;;;;6245866;23;20027;-63
2022/12/01 05:40:31;;;;;;;47.78;20.42;;;;;;;;;;6245689;23;20444;-63
2022/12/01 05:42:57;;;;;;;46.78;20.58;;;;;;;;;;6245569;23;20335;-65
2022/12/01 05:45:24;;;;;;;39.67;20.13;;;;;;;;;;6244127;23;20091;-63
2022/12/01 05:47:53;;;;;;;47.45;21.58;;;;;;;;;;6243706;23;20005;-63
2022/12/01 05:50:19;;;;;;;45.45;20.42;;;;;;;;;;6243482;23;20004;-63
2022/12/01 05:52:45;;;;;;;43.35;18.75;;;;;;;;;;6243810;23;20069;-64
2022/12/01 05:55:11;;;;;;;42.50;20.60;;;;;;;;;;6243947;23;20008;-63
2022/12/01 05:57:38;;;;;;;45.15;19.77;;;;;;;;;;6244167;23;20008;-63
2022/12/01 06:00:04;;;;;;;45.83;20.10;;;;;;;;;;6243144;23;20019;-63
2022/12/01 06:02:37;;;;;;;43.28;20.70;;;;;;;;;;6242748;22;20413;-64
2022/12/01 06:05:03;;;;;;;41.45;20.10;;;;;;;;;;6242771;23;20011;-63
2022/12/01 06:07:30;;;;;;;44.50;21.45;;;;;;;;;;6242711;23;20034;-63
2022/12/01 06:09:57;;;;;;;48.50;21.27;;;;;;;;;;6242646;22;20083;-63
2022/12/01 06:12:23;;;;;;;42.92;20.27;;;;;;;;;;6241176;23;20008;-63
2022/12/01 06:14:49;;;;;;;44.90;20.88;;;;;;;;;;6242897;23;20082;-63
2022/12/01 06:17:15;;;;;;;43.65;20.73;;;;;;;;;;6242348;23;20480;-63
2022/12/01 06:19:42;;;;;;;42.90;19.65;;;;;;;;;;6241699;23;20016;-65
2022/12/01 06:22:08;;;;;;;48.40;22.27;;;;;;;;;;6241886;22;20438;-64
2022/12/01 06:24:34;;;;;;;41.78;19.20;;;;;;;;;;6242623;23;20066;-64
2022/12/01 06:27:00;;;;;;;43.08;19.33;;;;;;;;;;6242194;23;20008;-64
2022/12/01 06:29:26;;;;;;;44.58;20.13;;;;;;;;;;6242649;23;20004;-64
2022/12/01 06:31:52;;;;;;;45.38;20.00;;;;;;;;;;6241538;23;20003;-64
2022/12/01 06:34:18;;;;;;;42.42;20.48;;;;;;;;;;6242119;23;20087;-66
2022/12/01 06:36:45;;;;;;;46.33;20.10;;;;;;;;;;6242300;23;20396;-64
2022/12/01 06:39:11;;;;;;;40.97;20.38;;;;;;;;;;6241751;23;20018;-64
2022/12/01 06:41:37;;;;;;;40.90;19.90;;;;;;;;;;6240337;23;20004;-64
2022/12/01 06:44:04;;;;;;;43.15;20.35;;;;;;;;;;6242747;23;20512;-64
2022/12/01 06:46:30;;;;;;;51.15;26.55;;;;;;;;;;6242463;23;20001;-65
2022/12/01 06:48:56;;;;;;;45.25;19.85;;;;;;;;;;6244118;23;20054;-63
2022/12/01 06:51:22;;;;;;;48.13;21.17;;;;;;;;;;6243785;23;20343;-64
2022/12/01 06:53:53;;;;;;;43.97;20.08;;;;;;;;;;6244606;23;20000;-63
2022/12/01 06:56:19;;;;;;;47.13;21.30;;;;;;;;;;6243784;22;20090;-64
2022/12/01 06:58:45;;;;;;;43.35;20.75;;;;;;;;;;6244708;22;20005;-63
2022/12/01 07:01:11;;;;;;;47.88;20.15;;;;;;;;;;6244342;23;20347;-63
2022/12/01 07:03:38;;;;;;;44.08;18.90;;;;;;;;;;6245007;23;20456;-63
2022/12/01 07:06:04;;;;;;;44.08;20.60;;;;;;;;;;6244775;23;20012;-63
2022/12/01 07:08:31;;;;;;;49.88;21.42;;;;;;;;;;6244964;23;20027;-63
2022/12/01 07:11:01;;;;;;;46.45;20.38;;;;;;;;;;6244310;22;20356;-63
2022/12/01 07:13:27;;;;;;;42.28;20.73;;;;;;;;;;6243674;23;20019;-63
2022/12/01 07:15:55;;;;;;;52.10;21.13;;;;;;;;;;6243639;22;20032;-63
2022/12/01 07:18:21;;;;;;;55.63;23.60;;;;;;;;;;6244690;23;20012;-63
2022/12/01 07:20:47;;;;;;;73.65;35.42;;;;;;;;;;6243887;23;20058;-64
2022/12/01 07:23:13;;;;;;;49.92;24.50;;;;;;;;;;6243138;23;20058;-65
2022/12/01 07:25:39;;;;;;;52.33;21.65;;;;;;;;;;6244888;23;20004;-64
2022/12/01 07:28:05;;;;;;;47.40;21.67;;;;;;;;;;6243837;23;20012;-64
2022/12/01 07:30:31;;;;;;;49.20;21.77;;;;;;;;;;6243808;23;20004;-64
2022/12/01 07:32:57;;;;;;;62.22;23.85;;;;;;;;;;6244387;23;20000;-64
2022/12/01 07:35:24;;;;;;;69.68;23.73;;;;;;;;;;6245123;23;20067;-64
2022/12/01 07:37:58;;;;;;;122.07;24.25;;;;;;;;;;6244593;23;20011;-64
2022/12/01 07:40:25;;;;;;;93.13;23.25;;;;;;;;;;6245459;23;20008;-64
2022/12/01 07:42:51;;;;;;;77.78;22.80;;;;;;;;;;6244876;23;20320;-64
2022/12/01 07:45:17;;;;;;;60.65;20.60;;;;;;;;;;6244388;23;20004;-64
2022/12/01 07:47:43;;;;;;;66.60;20.02;;;;;;;;;;6243277;23;20504;-64
2022/12/01 07:50:09;;;;;;;88.63;23.85;;;;;;;;;;6243514;22;20004;-64
2022/12/01 07:52:36;;;;;;;57.42;23.42;;;;;;;;;;6244606;22;20003;-64
2022/12/01 07:55:02;;;;;;;66.97;31.17;;;;;;;;;;6244335;23;20009;-64
2022/12/01 07:57:28;;;;;;;72.22;22.48;;;;;;;;;;6244079;23;20446;-64
2022/12/01 07:59:54;;;;;;;48.25;19.98;;;;;;;;;;6244589;23;20015;-64
2022/12/01 08:02:20;;;;;;;124.43;48.08;;;;;;;;;;6244526;23;20004;-64
2022/12/01 08:04:46;;;;;;;121.38;26.02;;;;;;;;;;6244787;23;20020;-64
2022/12/01 08:07:12;;;;;;;110.57;25.55;;;;;;;;;;6244215;23;20046;-64
2022/12/01 08:09:38;;;;;;;103.28;32.58;;;;;;;;;;6244569;23;20058;-64
2022/12/01 08:12:04;;;;;;;87.50;30.77;;;;;;;;;;6243894;23;20004;-64
2022/12/01 08:14:30;;;;;;;115.85;22.17;;;;;;;;;;6244743;23;20014;-64
2022/12/01 08:16:56;;;;;;;59.05;19.48;;;;;;;;;;6244581;23;20477;-64
2022/12/01 08:19:24;;;;;;;68.63;17.60;;;;;;;;;;6244436;23;20012;-64
2022/12/01 08:21:50;;;;;;;79.70;18.40;;;;;;;;;;6244575;22;20007;-64
2022/12/01 08:24:16;;;;;;;103.88;19.98;;;;;;;;;;6244393;23;20441;-64
2022/12/01 08:26:42;;;;;;;69.78;19.45;;;;;;;;;;6244250;23;20385;-64
2022/12/01 08:29:09;;;;;;;53.75;17.73;;;;;;;;;;6244314;22;20005;-64
2022/12/01 08:31:36;;;;;;;41.78;17.27;;;;;;;;;;6244496;23;20119;-64
2022/12/01 08:34:06;;;;;;;71.10;17.65;;;;;;;;;;6244512;22;20050;-64
2022/12/01 08:36:32;;;;;;;52.58;18.95;;;;;;;;;;6244466;23;20000;-64
2022/12/01 08:38:59;;;;;;;83.20;24.60;;;;;;;;;;6244463;23;20009;-64
2022/12/01 08:41:25;;;;;;;78.50;28.60;;;;;;;;;;6244220;22;20032;-64
2022/12/01 08:43:51;;;;;;;81.38;19.63;;;;;;;;;;6244528;23;20035;-64
2022/12/01 08:46:17;;;;;;;53.13;18.63;;;;;;;;;;6244011;23;20019;-64
2022/12/01 08:48:43;;;;;;;109.82;20.10;;;;;;;;;;6246092;23;20004;-64
2022/12/01 08:51:17;;;;;;;80.88;17.58;;;;;;;;;;6246069;23;19996;-64
2022/12/01 08:53:44;;;;;;;60.05;18.58;;;;;;;;;;6246293;23;20080;-64
2022/12/01 08:56:12;;;;;;;63.25;17.85;;;;;;;;;;6245767;23;20020;-64
2022/12/01 08:58:38;;;;;;;79.63;18.67;;;;;;;;;;6246238;23;20079;-64
2022/12/01 09:01:06;;;;;;;70.93;18.48;;;;;;;;;;6246163;23;20054;-64
2022/12/01 09:03:33;;;;;;;93.68;20.17;;;;;;;;;;6246086;22;20335;-64
2022/12/01 09:06:03;;;;;;;95.05;18.50;;;;;;;;;;6246051;23;20430;-64
2022/12/01 09:08:33;;;;;;;82.13;18.23;;;;;;;;;;6245799;23;20575;-64
2022/12/01 09:11:00;;;;;;;76.25;19.27;;;;;;;;;;6245828;22;20130;-64
2022/12/01 09:13:27;;;;;;;38.47;17.73;;;;;;;;;;6245838;23;20054;-64
2022/12/01 09:15:57;;;;;;;48.38;14.95;;;;;;;;;;6246219;22;20014;-64
2022/12/01 09:18:24;;;;;;;49.20;14.25;;;;;;;;;;6245823;23;20008;-64
2022/12/01 09:20:50;;;;;;;33.50;13.70;;;;;;;;;;6246148;23;20000;-64
2022/12/01 09:23:16;;;;;;;79.15;16.08;;;;;;;;;;6245733;23;20004;-64
2022/12/01 09:25:42;;;;;;;64.43;18.80;;;;;;;;;;6245546;23;20057;-64
2022/12/01 09:28:08;;;;;;;71.05;20.98;;;;;;;;;;6245813;23;20075;-64
2022/12/01 09:30:35;;;;;;;55.15;16.98;;;;;;;;;;6245858;23;20019;-64
2022/12/01 09:33:01;;;;;;;63.85;17.63;;;;;;;;;;6245778;23;20004;-64
2022/12/01 09:35:27;;;;;;;92.32;17.13;;;;;;;;;;6245826;23;20343;-64
2022/12/01 09:37:53;;;;;;;52.30;15.75;;;;;;;;;;6245873;23;20031;-64
2022/12/01 09:40:19;;;;;;;76.68;18.60;;;;;;;;;;6245259;23;20008;-64
2022/12/01 09:42:47;;;;;;;78.88;17.48;;;;;;;;;;6245741;23;20468;-64
2022/12/01 09:45:39;;;;;;;98.60;19.30;;;;;;;;;;6245479;23;20004;-64
2022/12/01 09:48:06;;;;;;;64.82;18.35;;;;;;;;;;6240621;23;20007;-64
2022/12/01 09:50:32;;;;;;;61.10;17.77;;;;;;;;;;6245626;23;20008;-64
2022/12/01 09:53:00;;;;;;;81.18;18.30;;;;;;;;;;6245614;23;20496;-64
2022/12/01 09:55:28;;;;;;;114.22;22.02;;;;;;;;;;6245072;23;20442;-64
2022/12/01 09:57:56;;;;;;;55.90;19.23;;;;;;;;;;6245722;23;20066;-65
2022/12/01 10:00:26;;;;;;;70.97;18.45;;;;;;;;;;6245184;23;20077;-64
2022/12/01 10:02:58;;;;;;;87.35;19.75;;;;;;;;;;6245616;23;20477;-64
2022/12/01 10:05:38;;;;;;;103.63;20.85;;;;;;;;;;6245487;23;20008;-64
2022/12/01 10:08:07;;;;;;;90.38;21.55;;;;;;;;;;6245112;23;20477;-64
2022/12/01 10:10:35;;;;;;;74.70;20.80;;;;;;;;;;6245706;23;19996;-64
2022/12/01 10:13:01;;;;;;;85.72;21.45;;;;;;;;;;6245497;23;20354;-64
2022/12/01 10:15:27;;;;;;;58.88;18.13;;;;;;;;;;6245359;23;20000;-64
2022/12/01 10:17:53;;;;;;;78.18;18.77;;;;;;;;;;6245568;23;20008;-64
2022/12/01 10:20:43;;;;;;;73.30;20.08;;;;;;;;;;6245257;23;20054;-64
2022/12/01 10:23:27;;;;;;;68.45;22.13;;;;;;;;;;6122534;23;20010;-64
2022/12/01 10:26:04;;;;;;;66.57;19.75;;;;;;;;;;6123112;23;20010;-64
2022/12/01 10:28:30;;;;;;;104.25;19.90;;;;;;;;;;6123017;23;20020;-64
2022/12/01 10:31:03;;;;;;;146.55;23.73;;;;;;;;;;6123309;23;20006;-64
2022/12/01 10:33:38;;;;;;;132.07;21.30;;;;;;;;;;6122998;23;20006;-64
2022/12/01 10:36:04;;;;;;;56.63;18.27;;;;;;;;;;6123134;23;20041;-64
2022/12/01 10:38:32;;;;;;;85.85;22.40;;;;;;;;;;6122454;23;20006;-64
2022/12/01 10:40:59;;;;;;;101.63;20.55;;;;;;;;;;6123225;23;20006;-64
2022/12/01 10:43:32;;;;;;;81.63;19.13;;;;;;;;;;6122832;23;20010;-64
2022/12/01 10:45:59;;;;;;;172.45;23.25;;;;;;;;;;6123046;23;20017;-64
2022/12/01 10:48:26;;;;;;;72.90;21.13;;;;;;;;;;6122404;23;20009;-64
2022/12/01 10:50:56;;;;;;;137.13;27.20;;;;;;;;;;6123171;23;20006;-64
2022/12/01 10:53:32;;;;;;;86.85;21.25;;;;;;;;;;6122548;23;20006;-64
2022/12/01 10:56:02;;;;;;;96.97;21.10;;;;;;;;;;6122964;23;20010;-64
2022/12/01 10:58:28;;;;;;;42.58;18.60;;;;;;;;;;6122584;23;20010;-64
2022/12/01 11:01:00;;;;;;;44.05;17.63;;;;;;;;;;6223985;23;20065;-64
2022/12/01 11:03:27;;;;;;;97.65;19.55;;;;;;;;;;6244889;23;20511;-64
2022/12/01 11:05:57;;;;;;;68.53;19.58;;;;;;;;;;6244464;23;20434;-64
2022/12/01 11:08:29;;;;;;;88.72;18.88;;;;;;;;;;6244313;23;20513;-64
2022/12/01 11:10:56;;;;;;;74.90;19.55;;;;;;;;;;6244672;23;20050;-64
2022/12/01 11:13:24;;;;;;;89.97;17.35;;;;;;;;;;6244631;23;20020;-64
2022/12/01 11:15:52;;;;;;;85.85;21.63;;;;;;;;;;6244876;22;20000;-64
2022/12/01 11:18:29;;;;;;;53.58;19.45;;;;;;;;;;6244745;23;20011;-64
2022/12/01 11:21:04;;;;;;;64.13;21.95;;;;;;;;;;6244670;23;20446;-64
2022/12/01 11:23:30;;;;;;;68.88;21.75;;;;;;;;;;6244709;23;20015;-64
2022/12/01 11:26:05;;;;;;;65.38;23.98;;;;;;;;;;6244377;23;20004;-65
2022/12/01 11:28:32;;;;;;;52.78;21.33;;;;;;;;;;6245424;23;20434;-64
2022/12/01 11:30:59;;;;;;;48.20;20.30;;;;;;;;;;6241638;23;20353;-63
2022/12/01 11:33:26;;;;;;;49.35;22.00;;;;;;;;;;6242196;23;20079;-64
2022/12/01 11:35:52;;;;;;;44.70;19.65;;;;;;;;;;6242303;23;20443;-63
2022/12/01 11:38:20;;;;;;;41.55;18.45;;;;;;;;;;6242439;23;20018;-63
2022/12/01 11:40:54;;;;;;;38.45;17.40;;;;;;;;;;6242726;23;20083;-63
2022/12/01 11:43:27;;;;;;;32.25;16.98;;;;;;;;;;6242245;23;20012;-63
2022/12/01 11:45:53;;;;;;;45.95;16.42;;;;;;;;;;6242768;23;20015;-63
2022/12/01 11:48:24;;;;;;;41.38;19.00;;;;;;;;;;6242178;23;20006;-63
2022/12/01 11:51:05;;;;;;;40.08;19.88;;;;;;;;;;6242577;22;20000;-63
2022/12/01 11:53:36;;;;;;;45.72;20.00;;;;;;;;;;6242253;23;20031;-63
2022/12/01 11:56:22;;;;;;;41.05;18.88;;;;;;;;;;6242839;23;20030;-63
2022/12/01 11:58:57;;;;;;;46.63;21.00;;;;;;;;;;6242904;22;20283;-63
2022/12/01 12:01:23;;;;;;;47.22;20.55;;;;;;;;;;6242195;23;20015;-63
2022/12/01 12:04:13;;;;;;;39.45;18.90;;;;;;;;;;6242316;22;20050;-63
2022/12/01 12:06:57;;;;;;;40.70;21.10;;;;;;;;;;6226609;23;20116;-63
2022/12/01 12:09:42;;;;;;;40.75;18.70;;;;;;;;;;6242197;23;20000;-63
2022/12/01 12:12:17;;;;;;;41.72;21.30;;;;;;;;;;6242402;23;20393;-63
2022/12/01 12:15:09;;;;;;;41.83;20.95;;;;;;;;;;6243620;23;20038;-63
2022/12/01 12:17:41;;;;;;;42.95;22.75;;;;;;;;;;6242362;23;20019;-63
2022/12/01 12:20:19;;;;;;;41.05;20.17;;;;;;;;;;6242174;23;20008;-63
2022/12/01 12:22:45;;;;;;;49.65;22.85;;;;;;;;;;6243096;22;20460;-63
2022/12/01 12:25:29;;;;;;;43.85;21.73;;;;;;;;;;6244322;23;20444;-63
2022/12/01 12:28:06;;;;;;;46.65;21.83;;;;;;;;;;6244328;23;20004;-63
2022/12/01 12:30:36;;;;;;;43.45;21.92;;;;;;;;;;6243870;23;20008;-63
2022/12/01 12:33:21;;;;;;;38.65;20.30;;;;;;;;;;6245441;23;20083;-63
2022/12/01 12:36:06;;;;;;;40.38;19.50;;;;;;;;;;6246094;23;20004;-64
2022/12/01 12:38:50;;;;;;;38.13;20.20;;;;;;;;;;6245345;23;20024;-64
2022/12/01 12:41:31;;;;;;;42.13;21.35;;;;;;;;;;6244397;23;20038;-64
2022/12/01 12:44:07;;;;;;;36.60;18.90;;;;;;;;;;6243435;23;20007;-63
2022/12/01 12:46:43;;;;;;;38.20;19.25;;;;;;;;;;6243891;23;20004;-63
2022/12/01 12:49:29;;;;;;;34.95;18.35;;;;;;;;;;6244083;23;20051;-63
2022/12/01 12:52:29;;;;;;;40.40;19.65;;;;;;;;;;6244429;23;20077;-63
2022/12/01 12:55:02;;;;;;;40.45;20.75;;;;;;;;;;6246269;23;20054;-63
2022/12/01 12:57:37;;;;;;;35.58;18.70;;;;;;;;;;6244818;23;20000;-63
2022/12/01 13:00:14;;;;;;;35.05;18.30;;;;;;;;;;6245218;23;20004;-63
2022/12/01 13:02:48;;;;;;;36.85;19.10;;;;;;;;;;6245874;23;20027;-63
2022/12/01 13:05:20;;;;;;;36.03;17.92;;;;;;;;;;6245282;23;20079;-63
2022/12/01 13:08:10;;;;;;;42.38;21.63;;;;;;;;;;6245110;23;20503;-63
2022/12/01 13:11:07;;;;;;;67.43;29.50;;;;;;;;;;6245043;23;20019;-63
2022/12/01 13:13:42;;;;;;;38.35;20.23;;;;;;;;;;6246050;23;20509;-63
2022/12/01 13:16:20;;;;;;;36.42;18.25;;;;;;;;;;6246307;23;20081;-63
2022/12/01 13:18:50;;;;;;;34.70;17.30;;;;;;;;;;6245735;23;20012;-63
2022/12/01 13:21:19;;;;;;;32.03;17.67;;;;;;;;;;6246032;23;20004;-63
2022/12/01 13:23:46;;;;;;;34.45;17.27;;;;;;;;;;6246024;23;20385;-63
2022/12/01 13:26:12;;;;;;;29.75;16.10;;;;;;;;;;6246142;22;19996;-63
2022/12/01 13:28:43;;;;;;;26.55;13.75;;;;;;;;;;6245857;23;20058;-63
2022/12/01 13:31:11;;;;;;;24.75;13.52;;;;;;;;;;6245569;23;20506;-63
2022/12/01 13:33:38;;;;;;;25.90;14.38;;;;;;;;;;6245619;23;20380;-63
2022/12/01 13:36:09;;;;;;;25.38;13.73;;;;;;;;;;6245892;23;20083;-63
2022/12/01 13:38:35;;;;;;;27.83;14.10;;;;;;;;;;6245565;23;20012;-63
2022/12/01 13:41:21;;;;;;;32.13;13.60;;;;;;;;;;6245968;23;20011;-63
2022/12/01 13:43:56;;;;;;;28.30;12.82;;;;;;;;;;6245534;23;20447;-63
2022/12/01 13:46:24;;;;;;;22.98;12.57;;;;;;;;;;6245426;23;20034;-63
2022/12/01 13:48:52;;;;;;;29.88;12.85;;;;;;;;;;6245773;23;20004;-63
2022/12/01 13:51:18;;;;;;;24.60;12.40;;;;;;;;;;6245881;22;20469;-63
2022/12/01 13:54:02;;;;;;;26.92;13.85;;;;;;;;;;6245469;23;20023;-63
2022/12/01 13:56:58;;;;;;;28.27;15.43;;;;;;;;;;6245470;23;20079;-63
2022/12/01 13:59:42;;;;;;;26.00;13.18;;;;;;;;;;6245652;23;20262;-63
2022/12/01 14:02:14;;;;;;;27.65;13.68;;;;;;;;;;6245557;23;20000;-63
2022/12/01 14:04:40;;;;;;;27.43;14.07;;;;;;;;;;6245401;23;20000;-63
2022/12/01 14:07:33;;;;;;;26.30;13.77;;;;;;;;;;6245487;23;20239;-63
2022/12/01 14:10:17;;;;;;;28.38;13.45;;;;;;;;;;6240833;22;20473;-63
2022/12/01 14:12:45;;;;;;;28.58;13.25;;;;;;;;;;6245251;23;20012;-63
2022/12/01 14:15:31;;;;;;;29.98;13.20;;;;;;;;;;6245294;23;20008;-63
2022/12/01 14:17:59;;;;;;;30.45;13.70;;;;;;;;;;6245338;23;20307;-63
2022/12/01 14:20:26;;;;;;;27.70;13.90;;;;;;;;;;6245589;22;20394;-63
2022/12/01 14:23:23;;;;;;;23.95;13.65;;;;;;;;;;6245336;23;20008;-63
2022/12/01 14:25:58;;;;;;;29.90;12.98;;;;;;;;;;6220322;23;20454;-63
2022/12/01 14:28:44;;;;;;;28.80;13.82;;;;;;;;;;6245237;23;20015;-63
2022/12/01 14:31:11;;;;;;;32.33;13.35;;;;;;;;;;6224650;23;20008;-63
2022/12/01 14:33:37;;;;;;;29.80;12.63;;;;;;;;;;6245327;23;20000;-63